ADDS METAR Data INFO
IDs: Format: Raw Decoded Include TAF

Data at: 2225 UTC 24 Jun 2018

KRRT 242215Z AUTO 07013G17KT 10SM CLR 23/17 A3004 RMK AO2
KRRT 242155Z AUTO 07009G14KT 10SM CLR 23/17 A3005 RMK AO2
KRRT 242135Z AUTO 07013G18KT 10SM CLR 23/17 A3005 RMK AO2
KRRT 242115Z AUTO 08014KT 10SM SCT032 22/17 A3006 RMK AO2
KRRT 242055Z AUTO 09013G16KT 10SM CLR 22/17 A3006 RMK AO2
KRRT 242035Z AUTO 07013G17KT 10SM CLR 22/17 A3006 RMK AO2
KRRT 242015Z AUTO 07012KT 10SM CLR 22/17 A3005 RMK AO2
KRRT 241955Z AUTO 08011KT 10SM CLR 22/17 A3006 RMK AO2
KRRT 241935Z AUTO 09013G16KT 10SM CLR 22/17 A3005 RMK AO2
KRRT 241915Z AUTO 07012G21KT 10SM SCT027 22/17 A3005 RMK AO2
KRRT 241856Z AUTO 06015G22KT 10SM SCT027 21/17 A3005 RMK AO2
KRRT 241855Z AUTO 06016G22KT 10SM SCT027 21/17 A3005 RMK AO2
KRRT 241835Z AUTO 05016G22KT 10SM SCT027 21/17 A3005 RMK AO2
KRRT 241815Z AUTO 06016G22KT 10SM SCT027 20/17 A3004 RMK AO2
KRRT 241756Z AUTO 06013G21KT 10SM SCT027 20/17 A3005 RMK AO2
KRRT 241755Z AUTO 06015G22KT 10SM SCT027 20/17 A3005 RMK AO2
KRRT 241735Z AUTO 06016G19KT 10SM CLR 21/17 A3004 RMK AO2
KRRT 241715Z AUTO 06014G21KT 10SM CLR 20/17 A3004 RMK AO2
KRRT 241656Z AUTO 06016G19KT 10SM SCT025 20/17 A3003 RMK AO2
KRRT 241655Z AUTO 06014G19KT 10SM SCT025 20/17 A3003 RMK AO2
KRRT 241635Z AUTO 05013G20KT 10SM CLR 21/17 A3002 RMK AO2
KRRT 241615Z AUTO 07013G18KT 10SM SCT025 21/17 A3002 RMK AO2
KRRT 241556Z AUTO 08011G17KT 10SM SCT022 20/16 A3001 RMK AO2
KRRT 241555Z AUTO 08014G18KT 10SM SCT022 20/16 A3001 RMK AO2
KRRT 241535Z AUTO 08013G18KT 10SM SCT020 20/16 A3000 RMK AO2
KRRT 241515Z AUTO 09013G16KT 10SM SCT020 20/16 A3000 RMK AO2
KRRT 241456Z AUTO 09013KT 10SM SCT020 19/16 A3000 RMK AO2
KRRT 241455Z AUTO 09013KT 10SM SCT020 19/16 A3000 RMK AO2
KRRT 241435Z AUTO 09014G18KT 10SM SCT020 19/16 A3000 RMK AO2
KRRT 241415Z AUTO 09015G18KT 10SM SCT016 19/16 A3000 RMK AO2
KRRT 241356Z AUTO 08012KT 10SM BKN016 19/16 A2999 RMK AO2
KRRT 241355Z AUTO 09012KT 10SM BKN016 19/16 A2999 RMK AO2
KRRT 241335Z AUTO 10012KT 10SM BKN014 BKN019 18/16 A2998 RMK AO2
KRRT 241315Z AUTO 11012KT 10SM OVC014 18/16 A2998 RMK AO2
KRRT 241255Z AUTO 11009G15KT 10SM OVC014 18/16 A2998 RMK AO2
KRRT 241235Z AUTO 12015KT 10SM OVC014 18/16 A2997 RMK AO2
KRRT 241215Z AUTO 11016G19KT 10SM OVC016 18/16 A2996 RMK AO2
KRRT 241155Z AUTO 10013G18KT 10SM BKN013 OVC020 18/16 A2995 RMK AO2
KRRT 241135Z AUTO 10012G18KT 10SM BKN013 OVC020 18/16 A2994 RMK AO2
KRRT 241115Z AUTO 10014G17KT 10SM OVC013 18/16 A2994 RMK AO2
KRRT 241055Z AUTO 10014G19KT 10SM OVC013 18/16 A2994 RMK AO2
KRRT 241035Z AUTO 10014G17KT 10SM BKN013 18/16 A2993 RMK AO2
KRRT 241016Z AUTO 10012KT 10SM SCT013 18/16 A2992 RMK AO2
KRRT 241015Z AUTO 10013KT 10SM SCT013 18/16 A2991 RMK AO2
KRRT 240955Z AUTO 10016G20KT 10SM SCT013 18/16 A2991 RMK AO2
KRRT 240935Z AUTO 10016G20KT 10SM SCT013 19/17 A2990 RMK AO2
KRRT 240916Z AUTO 09014G20KT 10SM SCT013 19/17 A2989 RMK AO2
KRRT 240915Z AUTO 10012G20KT 10SM SCT013 19/17 A2989 RMK AO2
KRRT 240855Z AUTO 10012G21KT 10SM CLR 19/17 A2989 RMK AO2
KRRT 240835Z AUTO 09017G22KT 10SM CLR 19/17 A2988 RMK AO2
KRRT 240816Z AUTO 10014KT 10SM SCT039 19/17 A2988 RMK AO2
KRRT 240815Z AUTO 10014KT 10SM SCT039 19/17 A2988 RMK AO2
KRRT 240755Z AUTO 10011G19KT 10SM SCT013 SCT039 19/17 A2988 RMK AO2
KRRT 240735Z AUTO 10010G17KT 10SM SCT013 20/18 A2988 RMK AO2
KRRT 240715Z AUTO 09011G15KT 10SM CLR 20/18 A2987 RMK AO2
KRRT 240655Z AUTO 09009KT 10SM CLR 20/18 A2987 RMK AO2
KRRT 240635Z AUTO 10008KT 10SM CLR 20/18 A2987 RMK AO2
KRRT 240615Z AUTO 10011KT 10SM CLR 20/18 A2986 RMK AO2
KRRT 240555Z AUTO 10012KT 10SM CLR 21/18 A2986 RMK AO2
KRRT 240535Z AUTO 10009KT 10SM SCT031 21/19 A2986 RMK AO2 LTG DSNT NE
KRRT 240515Z AUTO 07010KT 10SM BKN029 21/19 A2985 RMK AO2
KRRT 240455Z AUTO 06012KT 10SM OVC027 22/19 A2985 RMK AO2 LTG DSNT NE
KRRT 240436Z AUTO 05009G14KT 10SM BKN027 BKN036 21/19 A2985 RMK AO2
KRRT 240435Z AUTO 06007G14KT 10SM BKN027 BKN036 21/19 A2985 RMK AO2
KRRT 240415Z AUTO 05009KT 10SM BKN034 21/19 A2984 RMK AO2
KRRT 240355Z AUTO 05007KT 10SM BKN031 BKN110 21/19 A2984 RMK AO2
KRRT 240336Z AUTO 05009KT 10SM BKN110 21/19 A2984 RMK AO2
KRRT 240335Z AUTO 05009KT 10SM BKN110 21/19 A2984 RMK AO2
KRRT 240315Z AUTO 08009KT 10SM SCT029 SCT110 21/18 A2983 RMK AO2
KRRT 240255Z AUTO 07009KT 10SM SCT029 21/18 A2983 RMK AO2
KRRT 240235Z AUTO 06008KT 10SM SCT110 21/18 A2982 RMK AO2
KRRT 240215Z AUTO 07006KT 10SM SCT110 21/18 A2981 RMK AO2 LTG DSNT N
KRRT 240155Z AUTO 00000KT 10SM SCT110 21/18 A2981 RMK AO2
KRRT 240135Z AUTO 05005KT 10SM SCT110 21/18 A2980 RMK AO2
KRRT 240115Z AUTO 08007KT 10SM CLR 21/18 A2979 RMK AO2
KRRT 240055Z AUTO 04005KT 10SM CLR 21/18 A2978 RMK AO2 LTG DSNT N AND NE
KRRT 240035Z AUTO 00000KT 10SM CLR 21/19 A2976 RMK AO2
KRRT 240015Z AUTO 08006KT 10SM CLR 21/18 A2977 RMK AO2 LTG DSNT NE
KRRT 232355Z AUTO 08005KT 10SM CLR 21/18 A2977 RMK AO2 LTG DSNT NE
KRRT 232335Z AUTO 11009KT 10SM CLR 22/18 A2977 RMK AO2 LTG DSNT NE
KRRT 232315Z AUTO 00000KT 10SM CLR 21/18 A2976 RMK AO2 LTG DSNT SW THRU N
KRRT 232256Z AUTO 13003KT 10SM SCT055 20/18 A2977 RMK AO2 LTG DSNT N AND NE
KRRT 232235Z AUTO 14004KT 10SM TS SCT055 20/18 A2979 RMK AO2 LTG DSNT N
KRRT 232215Z AUTO 14009KT 10SM VCTS SCT029 21/18 A2979 RMK AO2 LTG DSNT SE THRU SW
KRRT 232156Z AUTO 15010KT 10SM TS SCT029 BKN038 BKN046 21/17 A2979 RMK AO2 LTG DSNT ALQDS
KRRT 232135Z AUTO 19007KT 164V224 10SM TS SCT043 SCT050 21/16 A2979 RMK AO2 LTG DSNT SE THRU W
KRRT 232115Z AUTO 18006KT 10SM SCT029 BKN045 BKN060 21/16 A2978 RMK AO2 LTG DSNT SE THRU SW
KRRT 232055Z AUTO 20007G18KT 10SM VCTS SCT029 SCT043 BKN060 23/18 A2978 RMK AO2 LTG DSNT E THRU S
KRRT 232035Z AUTO 06007KT 10SM CLR 25/21 A2976 RMK AO2 LTG DSNT E THRU SW
KRRT 232015Z AUTO 04011G14KT 024V124 10SM CLR 26/21 A2975 RMK AO2 LTG DSNT ALQDS
KRRT 231955Z AUTO 05009KT 10SM VCTS CLR 25/21 A2976 RMK AO2 LTG DSNT SE S AND NW
KRRT 231935Z AUTO 04009G14KT 10SM VCTS CLR 26/21 A2975 RMK AO2 LTG DSNT SE S AND NW
KRRT 231915Z AUTO 04009KT 10SM CLR 25/21 A2975 RMK AO2 LTG DSNT N SE AND NW
KRRT 231855Z AUTO 06009KT 10SM CLR 25/20 A2976 RMK AO2 LTG DSNT S AND NW
KRRT 231835Z AUTO 04008KT 10SM CLR 24/20 A2976 RMK AO2 LTG DSNT SE
KRRT 231815Z AUTO 06009KT 10SM CLR 24/20 A2976 RMK AO2
KRRT 231755Z AUTO 07007KT 10SM CLR 24/19 A2977 RMK AO2 LTG DSNT SE
KRRT 231735Z AUTO 07009KT 10SM CLR 23/19 A2977 RMK AO2
KRRT 231715Z AUTO 07010KT 10SM CLR 23/19 A2977 RMK AO2
KRRT 231655Z AUTO 07010KT 10SM CLR 23/19 A2977 RMK AO2
KRRT 231635Z AUTO 06009KT 10SM CLR 23/20 A2977 RMK AO2
KRRT 231615Z AUTO 05008KT 10SM CLR 23/20 A2977 RMK AO2
KRRT 231555Z AUTO 07006KT 10SM CLR 23/19 A2977 RMK AO2
KRRT 231535Z AUTO 02005KT 10SM CLR 23/19 A2977 RMK AO2
KRRT 231515Z AUTO 03006KT 10SM CLR 22/19 A2978 RMK AO2
KRRT 231455Z AUTO 36007KT 10SM CLR 22/19 A2977 RMK AO2 LTG DSNT SW
KRRT 231435Z AUTO 31005KT 10SM SCT050 21/18 A2977 RMK AO2
KRRT 231415Z AUTO 31004KT 10SM BKN050 BKN060 19/17 A2977 RMK AO2 LTG DSNT N
KRRT 231355Z AUTO 30003KT 10SM BKN060 19/17 A2977 RMK AO2 LTG DSNT N
KRRT 231335Z AUTO 17004KT 10SM SCT060 19/17 A2977 RMK AO2 LTG DSNT N AND SE
KRRT 231315Z AUTO 16005KT 10SM VCTS CLR 20/17 A2976 RMK AO2 LTG DSNT N AND SE
KRRT 231255Z AUTO 16004KT 10SM SCT060 19/17 A2976 RMK AO2 LTG DSNT N
KRRT 231235Z AUTO 15003KT 10SM SCT060 19/17 A2976 RMK AO2
KRRT 231215Z AUTO 14004KT 10SM CLR 19/17 A2976 RMK AO2
KRRT 231155Z AUTO 13003KT 10SM CLR 19/17 A2976 RMK AO2
KRRT 231135Z AUTO 00000KT 10SM CLR 18/16 A2975 RMK AO2
KRRT 231115Z AUTO 00000KT 10SM CLR 17/15 A2975 RMK AO2 LTG DSNT NE
KRRT 231055Z AUTO 14003KT 10SM CLR 17/15 A2975 RMK AO2 LTG DSNT N
KRRT 231035Z AUTO 14003KT 10SM CLR 17/15 A2975 RMK AO2 LTG DSNT E